createdAt,value
2022-08-30T00:00:31.251Z,20.34
2022-08-30T00:02:36.677Z,20.31
2022-08-30T00:04:41.593Z,20.30
2022-08-30T00:06:48.565Z,20.28
2022-08-30T00:08:53.620Z,20.24
2022-08-30T00:10:58.413Z,20.19
2022-08-30T00:13:04.047Z,20.17
2022-08-30T00:15:10.839Z,20.15
2022-08-30T00:17:18.379Z,20.14
2022-08-30T00:19:23.137Z,20.10
2022-08-30T00:21:28.228Z,20.08
2022-08-30T00:23:33.255Z,20.06
2022-08-30T00:25:38.417Z,20.04
2022-08-30T00:27:43.653Z,19.99
2022-08-30T00:29:48.361Z,19.96
2022-08-30T00:31:53.279Z,19.95
2022-08-30T00:33:58.086Z,19.95
2022-08-30T00:36:03.635Z,19.93
2022-08-30T00:38:08.958Z,19.91
2022-08-30T00:40:16.059Z,19.89
2022-08-30T00:42:22.658Z,19.90
2022-08-30T00:44:28.291Z,19.91
2022-08-30T00:46:33.225Z,19.90
2022-08-30T00:48:42.904Z,19.91
2022-08-30T00:50:52.887Z,19.92
2022-08-30T00:53:00.967Z,19.93
2022-08-30T00:55:06.777Z,19.92
2022-08-30T00:57:12.432Z,19.90
2022-08-30T00:59:17.913Z,19.89
2022-08-30T01:01:22.933Z,19.90
2022-08-30T01:03:28.592Z,19.89
2022-08-30T01:05:33.518Z,19.87
2022-08-30T01:07:38.443Z,19.84
2022-08-30T01:09:43.472Z,19.79
2022-08-30T01:11:49.077Z,19.75
2022-08-30T01:13:55.710Z,19.73
2022-08-30T01:16:01.308Z,19.73
2022-08-30T01:18:08.059Z,19.72
2022-08-30T01:20:19.826Z,19.71
2022-08-30T01:22:30.347Z,19.70
2022-08-30T01:24:35.563Z,19.66
2022-08-30T01:26:40.613Z,19.63
2022-08-30T01:28:50.017Z,19.60
2022-08-30T01:30:58.296Z,19.56
2022-08-30T01:33:04.910Z,19.54
2022-08-30T01:35:11.314Z,19.53
2022-08-30T01:37:17.663Z,19.54
2022-08-30T01:39:22.509Z,19.54
2022-08-30T01:41:29.319Z,19.55
2022-08-30T01:43:34.134Z,19.56
2022-08-30T01:45:39.036Z,19.58
2022-08-30T01:47:44.155Z,19.55
2022-08-30T01:49:49.393Z,19.54
2022-08-30T01:52:00.752Z,19.51
2022-08-30T01:54:08.098Z,19.49
2022-08-30T01:56:13.304Z,19.46
2022-08-30T01:58:18.066Z,19.43
2022-08-30T02:00:23.225Z,19.40
2022-08-30T02:02:29.862Z,19.39
2022-08-30T02:04:34.996Z,19.39
2022-08-30T02:06:41.057Z,19.39
2022-08-30T02:08:47.010Z,19.41
2022-08-30T02:10:51.769Z,19.42
2022-08-30T02:12:56.516Z,19.40
2022-08-30T02:15:01.286Z,19.41
2022-08-30T02:17:08.684Z,19.40
2022-08-30T02:19:13.541Z,19.36
2022-08-30T02:21:19.829Z,19.31
2022-08-30T02:23:24.523Z,19.24
2022-08-30T02:25:29.477Z,19.17
2022-08-30T02:27:34.510Z,19.10
2022-08-30T02:29:39.318Z,19.06
2022-08-30T02:31:44.109Z,19.04
2022-08-30T02:33:50.706Z,19.01
2022-08-30T02:35:55.572Z,18.99
2022-08-30T02:38:00.395Z,18.98
2022-08-30T02:40:06.585Z,18.97
2022-08-30T02:42:11.370Z,18.94
2022-08-30T02:44:16.627Z,18.91
2022-08-30T02:46:21.448Z,18.89
2022-08-30T02:48:26.377Z,18.89
2022-08-30T02:50:31.220Z,18.88
2022-08-30T02:52:36.252Z,18.86
2022-08-30T02:54:41.034Z,18.84
2022-08-30T02:56:45.795Z,18.81
2022-08-30T02:58:50.538Z,18.79
2022-08-30T03:00:55.552Z,18.76
2022-08-30T03:03:00.287Z,18.76
2022-08-30T03:05:06.018Z,18.78
2022-08-30T03:07:11.199Z,18.82
2022-08-30T03:09:15.925Z,18.84
2022-08-30T03:11:20.806Z,18.85
2022-08-30T03:13:25.840Z,18.87
2022-08-30T03:15:30.733Z,18.88
2022-08-30T03:17:35.626Z,18.86
2022-08-30T03:19:40.332Z,18.86
2022-08-30T03:21:45.280Z,18.88
2022-08-30T03:23:49.930Z,18.88
2022-08-30T03:25:54.877Z,18.86
2022-08-30T03:27:59.926Z,18.84
2022-08-30T03:30:06.601Z,18.80
2022-08-30T03:32:11.479Z,18.72
2022-08-30T03:34:16.580Z,18.67
2022-08-30T03:36:21.735Z,18.63
2022-08-30T03:38:26.600Z,18.59
2022-08-30T03:40:31.399Z,18.57
2022-08-30T03:42:36.356Z,18.55
2022-08-30T03:44:41.265Z,18.54
2022-08-30T03:46:46.184Z,18.54
2022-08-30T03:48:51.021Z,18.51
2022-08-30T03:50:56.321Z,18.50
2022-08-30T03:53:01.273Z,18.50
2022-08-30T03:55:07.356Z,18.51
2022-08-30T03:57:20.177Z,18.52
2022-08-30T03:59:29.076Z,18.51
2022-08-30T04:01:33.877Z,18.51
2022-08-30T04:03:38.758Z,18.51
2022-08-30T04:05:43.599Z,18.50
2022-08-30T04:07:48.337Z,18.50
2022-08-30T04:09:53.107Z,18.52
2022-08-30T04:12:00.736Z,18.53
2022-08-30T04:14:05.694Z,18.54
2022-08-30T04:16:10.694Z,18.54
2022-08-30T04:18:15.653Z,18.56
2022-08-30T04:20:21.580Z,18.56
2022-08-30T04:22:26.409Z,18.59
2022-08-30T04:24:31.321Z,18.60
2022-08-30T04:26:35.978Z,18.63
2022-08-30T04:28:40.821Z,18.67
2022-08-30T04:30:46.196Z,18.71
2022-08-30T04:32:52.728Z,18.75
2022-08-30T04:35:00.901Z,18.79
2022-08-30T04:37:05.837Z,18.83
2022-08-30T04:39:14.788Z,18.84
2022-08-30T04:41:21.755Z,18.86
2022-08-30T04:43:26.860Z,18.90
2022-08-30T04:45:32.033Z,18.91
2022-08-30T04:47:36.904Z,18.93
2022-08-30T04:49:41.755Z,18.94
2022-08-30T04:51:46.656Z,18.97
2022-08-30T04:53:51.497Z,18.98
2022-08-30T04:55:56.260Z,19.00
2022-08-30T04:58:02.515Z,19.06
2022-08-30T05:00:11.598Z,19.12
2022-08-30T05:02:16.335Z,19.18
2022-08-30T05:04:21.477Z,19.24
2022-08-30T05:06:30.671Z,19.30
2022-08-30T05:08:35.718Z,19.35
2022-08-30T05:10:41.751Z,19.40
2022-08-30T05:12:46.474Z,19.43
2022-08-30T05:14:51.945Z,19.43
2022-08-30T05:16:56.763Z,19.42
2022-08-30T05:19:01.815Z,19.41
2022-08-30T05:21:09.746Z,19.43
2022-08-30T05:23:14.531Z,19.46
2022-08-30T05:25:21.599Z,19.51
2022-08-30T05:27:26.417Z,19.57
2022-08-30T05:29:32.096Z,19.63
2022-08-30T05:31:37.829Z,19.66
2022-08-30T05:33:43.061Z,19.69
2022-08-30T05:35:47.998Z,19.71
2022-08-30T05:37:55.718Z,19.73
2022-08-30T05:40:00.781Z,19.75
2022-08-30T05:42:06.102Z,19.78
2022-08-30T05:44:11.566Z,19.81
2022-08-30T05:46:17.306Z,19.87
2022-08-30T05:48:22.334Z,19.90
2022-08-30T05:50:27.120Z,19.91
2022-08-30T05:52:31.997Z,19.94
2022-08-30T05:54:37.083Z,19.97
2022-08-30T05:56:43.284Z,19.98
2022-08-30T05:58:48.578Z,19.99
2022-08-30T06:00:54.641Z,20.01
2022-08-30T06:02:59.674Z,20.04
2022-08-30T06:05:05.967Z,20.08
2022-08-30T06:07:15.885Z,20.13
2022-08-30T06:09:22.326Z,20.17
2022-08-30T06:11:27.901Z,20.23
2022-08-30T06:13:32.938Z,20.30
2022-08-30T06:15:40.321Z,20.37
2022-08-30T06:17:45.336Z,20.44
2022-08-30T06:19:50.294Z,20.51
2022-08-30T06:21:55.614Z,20.54
2022-08-30T06:24:01.000Z,20.60
2022-08-30T06:26:07.304Z,20.67
2022-08-30T06:28:12.695Z,20.75
2022-08-30T06:30:18.980Z,20.84
2022-08-30T06:32:24.443Z,20.89
2022-08-30T06:34:29.616Z,20.94
2022-08-30T06:36:34.926Z,21.00
2022-08-30T06:38:40.243Z,21.07
2022-08-30T06:40:45.221Z,21.13
2022-08-30T06:42:50.157Z,21.19
2022-08-30T06:44:57.089Z,21.25
2022-08-30T06:47:02.013Z,21.31
2022-08-30T06:49:08.270Z,21.36
2022-08-30T06:51:13.025Z,21.38
2022-08-30T06:53:19.197Z,21.42
2022-08-30T06:55:25.415Z,21.40
2022-08-30T06:57:31.616Z,21.41
2022-08-30T06:59:36.486Z,21.43
2022-08-30T07:01:41.627Z,21.47
2022-08-30T07:03:46.921Z,21.54
2022-08-30T07:05:52.059Z,21.64
2022-08-30T07:07:56.867Z,21.75
2022-08-30T07:10:04.070Z,21.83
2022-08-30T07:12:10.044Z,21.89
2022-08-30T07:14:14.845Z,21.95
2022-08-30T07:16:19.893Z,21.99
2022-08-30T07:18:24.720Z,21.99
2022-08-30T07:20:40.593Z,22.00
2022-08-30T07:22:45.768Z,22.04
2022-08-30T07:24:50.613Z,22.07
2022-08-30T07:26:55.574Z,22.10
2022-08-30T07:29:00.532Z,22.12
2022-08-30T07:31:05.627Z,22.08
2022-08-30T07:33:10.783Z,22.06
2022-08-30T07:35:15.620Z,22.04
2022-08-30T07:37:20.465Z,22.09
2022-08-30T07:39:25.266Z,22.16
2022-08-30T07:41:31.830Z,22.22
2022-08-30T07:43:37.186Z,22.28
2022-08-30T07:45:42.102Z,22.32
2022-08-30T07:47:47.152Z,22.44
2022-08-30T07:49:51.915Z,22.54
2022-08-30T07:51:58.232Z,22.59
2022-08-30T07:54:03.701Z,22.63
2022-08-30T07:56:08.780Z,22.66
2022-08-30T07:58:13.632Z,22.64
2022-08-30T08:00:19.053Z,22.67
2022-08-30T08:02:23.863Z,22.71
2022-08-30T08:04:29.922Z,22.74
2022-08-30T08:06:37.763Z,22.77
2022-08-30T08:08:43.059Z,22.78
2022-08-30T08:10:48.083Z,22.80
2022-08-30T08:12:52.900Z,22.83
2022-08-30T08:14:57.812Z,22.89
2022-08-30T08:17:03.247Z,22.96
2022-08-30T08:19:08.009Z,23.03
2022-08-30T08:21:12.854Z,23.10
2022-08-30T08:23:18.438Z,23.14
2022-08-30T08:25:23.275Z,23.19
2022-08-30T08:27:28.024Z,23.25
2022-08-30T08:29:33.211Z,23.31
2022-08-30T08:31:38.599Z,23.38
2022-08-30T08:33:43.586Z,23.46
2022-08-30T08:35:48.631Z,23.47
2022-08-30T08:37:53.868Z,23.48
2022-08-30T08:39:58.613Z,23.52
2022-08-30T08:42:11.716Z,23.58
2022-08-30T08:44:32.458Z,23.63
2022-08-30T08:46:49.378Z,23.65
2022-08-30T08:49:00.693Z,23.65
2022-08-30T08:51:07.725Z,23.68
2022-08-30T08:53:44.410Z,23.71
2022-08-30T08:55:50.031Z,23.76
2022-08-30T08:57:56.249Z,23.83
2022-08-30T09:00:01.445Z,23.92
2022-08-30T09:02:25.867Z,24.00
2022-08-30T09:04:35.546Z,24.04
2022-08-30T09:06:49.111Z,24.09
2022-08-30T09:08:54.109Z,24.14
2022-08-30T09:11:02.735Z,24.15
2022-08-30T09:13:07.589Z,24.14
2022-08-30T09:15:27.307Z,24.15
2022-08-30T09:17:51.639Z,24.15
2022-08-30T09:20:02.962Z,24.12
2022-08-30T09:22:19.604Z,24.13
2022-08-30T09:24:24.883Z,24.17
2022-08-30T09:26:34.001Z,24.22
2022-08-30T09:28:49.297Z,24.23
2022-08-30T09:31:07.709Z,24.24
2022-08-30T09:33:21.156Z,24.31
2022-08-30T09:35:34.680Z,24.33
2022-08-30T09:37:51.729Z,24.32
2022-08-30T09:39:57.102Z,24.31
2022-08-30T09:42:16.283Z,24.35
2022-08-30T09:44:23.020Z,24.37
2022-08-30T09:46:27.792Z,24.37
2022-08-30T09:48:35.279Z,24.42
2022-08-30T09:50:42.208Z,24.46
2022-08-30T09:53:09.710Z,24.48
2022-08-30T09:55:26.911Z,24.47
2022-08-30T09:57:40.015Z,24.50
2022-08-30T09:59:53.986Z,24.60
2022-08-30T10:02:06.512Z,24.72
2022-08-30T10:04:20.010Z,24.81
2022-08-30T10:06:32.736Z,24.82
2022-08-30T10:08:48.487Z,24.79
2022-08-30T10:10:57.391Z,24.79
2022-08-30T10:13:16.121Z,24.84
2022-08-30T10:15:26.180Z,24.94
2022-08-30T10:17:45.856Z,25.02
2022-08-30T10:20:02.354Z,25.10
2022-08-30T10:22:14.302Z,25.10
2022-08-30T10:24:23.534Z,25.09
2022-08-30T10:26:35.388Z,25.12
2022-08-30T10:28:46.793Z,25.11
2022-08-30T10:30:58.523Z,25.09
2022-08-30T10:33:08.692Z,25.03
2022-08-30T10:35:19.601Z,24.98
2022-08-30T10:37:27.145Z,24.94
2022-08-30T10:39:37.532Z,24.95
2022-08-30T10:41:49.856Z,25.03
2022-08-30T10:44:01.231Z,25.02
2022-08-30T10:46:24.729Z,25.04
2022-08-30T10:48:35.947Z,25.05
2022-08-30T10:50:44.476Z,25.04
2022-08-30T10:52:59.465Z,25.08
2022-08-30T10:55:11.518Z,25.15
2022-08-30T10:57:17.305Z,25.22
2022-08-30T10:59:22.594Z,25.27
2022-08-30T11:01:47.106Z,25.30
2022-08-30T11:04:32.208Z,25.40
2022-08-30T11:06:47.505Z,25.53
2022-08-30T11:09:26.666Z,25.54
2022-08-30T11:11:41.509Z,25.54
2022-08-30T11:13:48.183Z,25.57
2022-08-30T11:16:01.242Z,25.62
2022-08-30T11:18:12.050Z,25.65
2022-08-30T11:20:34.489Z,25.72
2022-08-30T11:22:39.678Z,25.81
2022-08-30T11:25:11.962Z,25.91
2022-08-30T11:27:55.750Z,26.00
2022-08-30T11:30:37.572Z,26.10
2022-08-30T11:33:00.343Z,26.16
2022-08-30T11:35:11.173Z,26.21
2022-08-30T11:37:35.642Z,26.26
2022-08-30T11:39:58.486Z,26.33
2022-08-30T11:42:29.617Z,26.36
2022-08-30T11:44:34.905Z,26.39
2022-08-30T11:46:41.526Z,26.43
2022-08-30T11:48:54.157Z,26.44
2022-08-30T11:51:07.057Z,26.44
2022-08-30T11:53:22.123Z,26.46
2022-08-30T11:55:56.355Z,26.46
2022-08-30T11:58:14.821Z,26.52
2022-08-30T12:00:34.986Z,26.59
2022-08-30T12:02:59.190Z,26.65
2022-08-30T12:05:04.741Z,26.66
2022-08-30T12:07:31.821Z,26.69
2022-08-30T12:10:05.368Z,26.71
2022-08-30T12:12:12.892Z,26.74
2022-08-30T12:17:03.630Z,26.88
2022-08-30T12:19:19.115Z,26.90
2022-08-30T12:21:31.304Z,26.85
2022-08-30T12:23:52.254Z,26.83
2022-08-30T12:26:14.828Z,26.78
2022-08-30T12:28:25.134Z,26.72
2022-08-30T12:30:30.617Z,26.72
2022-08-30T12:32:42.563Z,26.79
2022-08-30T12:34:53.967Z,26.78
2022-08-30T12:37:01.583Z,26.72
2022-08-30T12:39:13.220Z,26.62
2022-08-30T12:41:21.305Z,26.65
2022-08-30T12:43:38.882Z,26.74
2022-08-30T12:45:50.776Z,26.75
2022-08-30T12:48:00.403Z,26.77
2022-08-30T12:50:07.604Z,26.80
2022-08-30T12:52:28.256Z,26.85
2022-08-30T12:54:33.046Z,26.85
2022-08-30T12:57:10.236Z,26.87
2022-08-30T12:59:52.939Z,26.95
2022-08-30T13:02:19.971Z,26.96
2022-08-30T13:04:28.869Z,26.92
2022-08-30T13:06:48.646Z,26.87
2022-08-30T13:08:53.638Z,26.89
2022-08-30T13:11:07.373Z,26.90
2022-08-30T13:13:25.952Z,26.92
2022-08-30T13:15:33.842Z,26.92
2022-08-30T13:17:39.154Z,26.94
2022-08-30T13:19:45.852Z,26.94
2022-08-30T13:21:53.961Z,26.97
2022-08-30T13:24:04.313Z,26.99
2022-08-30T13:26:09.620Z,27.01
2022-08-30T13:28:16.372Z,27.00
2022-08-30T13:30:22.279Z,26.98
2022-08-30T13:32:28.442Z,26.96
2022-08-30T13:34:33.581Z,26.98
2022-08-30T13:36:44.769Z,27.03
2022-08-30T13:38:49.860Z,27.07
2022-08-30T13:40:54.610Z,27.08
2022-08-30T13:43:00.015Z,27.05
2022-08-30T13:45:40.903Z,27.05
2022-08-30T13:47:33.065Z,27.08
2022-08-30T13:49:46.619Z,27.12
2022-08-30T13:52:18.502Z,27.13
2022-08-30T13:54:16.269Z,27.13
2022-08-30T13:56:21.510Z,27.15
2022-08-30T13:58:26.590Z,27.16
2022-08-30T14:00:36.788Z,27.17
2022-08-30T14:02:45.291Z,27.19
2022-08-30T14:04:53.924Z,27.22
2022-08-30T14:07:16.701Z,27.23
2022-08-30T14:09:23.743Z,27.25
2022-08-30T14:11:29.726Z,27.25
2022-08-30T14:13:34.789Z,27.23
2022-08-30T14:15:40.210Z,27.18
2022-08-30T14:17:45.133Z,27.16
2022-08-30T14:19:50.010Z,27.15
2022-08-30T14:21:55.243Z,27.11
2022-08-30T14:24:00.907Z,27.04
2022-08-30T14:26:13.634Z,26.98
2022-08-30T14:28:18.589Z,26.96
2022-08-30T14:30:26.032Z,26.94
2022-08-30T14:32:30.954Z,26.97
2022-08-30T14:34:35.884Z,26.95
2022-08-30T14:36:42.544Z,26.93
2022-08-30T14:38:48.461Z,26.87
2022-08-30T14:40:53.589Z,26.82
2022-08-30T14:42:58.651Z,26.82
2022-08-30T14:45:03.730Z,26.80
2022-08-30T14:47:09.065Z,26.82
2022-08-30T14:49:16.385Z,26.85
2022-08-30T14:51:23.597Z,26.86
2022-08-30T14:53:28.508Z,26.88
2022-08-30T14:55:34.001Z,26.82
2022-08-30T14:57:39.029Z,26.78
2022-08-30T14:59:44.626Z,26.71
2022-08-30T15:01:51.119Z,26.67
2022-08-30T15:03:56.423Z,26.65
2022-08-30T15:06:01.416Z,26.66
2022-08-30T15:08:06.502Z,26.63
2022-08-30T15:10:12.532Z,26.62
2022-08-30T15:12:18.303Z,26.62
2022-08-30T15:14:23.733Z,26.61
2022-08-30T15:16:32.017Z,26.57
2022-08-30T15:18:37.286Z,26.52
2022-08-30T15:20:47.861Z,26.51
2022-08-30T15:22:52.727Z,26.50
2022-08-30T15:24:58.298Z,26.51
2022-08-30T15:27:04.069Z,26.49
2022-08-30T15:29:09.652Z,26.48
2022-08-30T15:31:14.651Z,26.48
2022-08-30T15:33:19.474Z,26.46
2022-08-30T15:35:24.232Z,26.45
2022-08-30T15:37:29.335Z,26.40
2022-08-30T15:39:35.398Z,26.33
2022-08-30T15:41:40.424Z,26.27
2022-08-30T15:43:49.289Z,26.25
2022-08-30T15:45:55.266Z,26.30
2022-08-30T15:48:02.144Z,26.36
2022-08-30T15:50:08.922Z,26.35
2022-08-30T15:52:13.794Z,26.33
2022-08-30T15:54:20.786Z,26.34
2022-08-30T15:56:26.794Z,26.33
2022-08-30T15:58:31.589Z,26.32
2022-08-30T16:00:44.680Z,26.29
2022-08-30T16:02:49.927Z,26.26
2022-08-30T16:04:56.893Z,26.25
2022-08-30T16:07:05.419Z,26.24
2022-08-30T16:09:12.212Z,26.23
2022-08-30T16:11:19.226Z,26.21
2022-08-30T16:13:24.249Z,26.19
2022-08-30T16:15:29.420Z,26.15
2022-08-30T16:17:34.318Z,26.12
2022-08-30T16:19:42.208Z,26.10
2022-08-30T16:21:47.229Z,26.10
2022-08-30T16:23:56.279Z,26.10
2022-08-30T16:26:03.264Z,26.09
2022-08-30T16:28:09.753Z,26.09
2022-08-30T16:30:15.516Z,26.09
2022-08-30T16:32:20.592Z,26.11
2022-08-30T16:34:25.469Z,26.09
2022-08-30T16:36:32.093Z,26.05
2022-08-30T16:38:37.016Z,26.02
2022-08-30T16:40:43.767Z,26.00
2022-08-30T16:42:49.454Z,25.96
2022-08-30T16:44:54.534Z,25.92
2022-08-30T16:47:00.597Z,25.87
2022-08-30T16:49:08.696Z,25.84
2022-08-30T16:51:17.606Z,25.84
2022-08-30T16:53:22.886Z,25.85
2022-08-30T16:55:29.766Z,25.84
2022-08-30T16:57:34.638Z,25.81
2022-08-30T16:59:39.470Z,25.80
2022-08-30T17:01:44.689Z,25.78
2022-08-30T17:03:50.872Z,25.76
2022-08-30T17:05:57.127Z,25.75
2022-08-30T17:08:03.421Z,25.73
2022-08-30T17:10:09.814Z,25.70
2022-08-30T17:12:18.307Z,25.66
2022-08-30T17:14:28.234Z,25.63
2022-08-30T17:16:36.889Z,25.58
2022-08-30T17:18:42.244Z,25.56
2022-08-30T17:20:50.874Z,25.51
2022-08-30T17:22:57.668Z,25.43
2022-08-30T17:25:08.416Z,25.36
2022-08-30T17:27:13.455Z,25.32
2022-08-30T17:29:18.801Z,25.28
2022-08-30T17:31:26.706Z,25.24
2022-08-30T17:33:34.588Z,25.19
2022-08-30T17:35:39.966Z,25.14
2022-08-30T17:37:44.811Z,25.11
2022-08-30T17:39:49.751Z,25.07
2022-08-30T17:41:55.078Z,25.04
2022-08-30T17:44:00.318Z,25.01
2022-08-30T17:46:12.364Z,24.97
2022-08-30T17:48:17.802Z,24.94
2022-08-30T17:50:23.011Z,24.91
2022-08-30T17:52:28.514Z,24.87
2022-08-30T17:54:34.697Z,24.86
2022-08-30T17:56:39.582Z,24.83
2022-08-30T17:58:44.421Z,24.81
2022-08-30T18:00:50.287Z,24.77
2022-08-30T18:02:56.125Z,24.76
2022-08-30T18:05:01.468Z,24.75
2022-08-30T18:07:06.478Z,24.74
2022-08-30T18:09:11.726Z,24.72
2022-08-30T18:11:19.086Z,24.70
2022-08-30T18:13:24.162Z,24.68
2022-08-30T18:15:29.518Z,24.65
2022-08-30T18:17:34.611Z,24.61
2022-08-30T18:19:45.926Z,24.57
2022-08-30T18:21:52.400Z,24.54
2022-08-30T18:23:57.473Z,24.51
2022-08-30T18:26:03.084Z,24.47
2022-08-30T18:28:08.581Z,24.46
2022-08-30T18:30:20.276Z,24.42
2022-08-30T18:32:32.763Z,24.39
2022-08-30T18:34:42.445Z,24.36
2022-08-30T18:36:47.491Z,24.33
2022-08-30T18:38:52.819Z,24.29
2022-08-30T18:41:03.030Z,24.26
2022-08-30T18:43:08.121Z,24.23
2022-08-30T18:45:15.264Z,24.19
2022-08-30T18:47:23.174Z,24.15
2022-08-30T18:49:29.155Z,24.12
2022-08-30T18:51:38.679Z,24.09
2022-08-30T18:53:45.113Z,24.07
2022-08-30T18:55:50.310Z,24.05
2022-08-30T18:57:55.854Z,24.02
2022-08-30T19:00:02.330Z,23.99
2022-08-30T19:02:09.964Z,23.96
2022-08-30T19:04:22.483Z,23.94
2022-08-30T19:06:37.697Z,23.92
2022-08-30T19:08:45.752Z,23.89
2022-08-30T19:10:51.132Z,23.87
2022-08-30T19:12:57.345Z,23.85
2022-08-30T19:15:10.902Z,23.83
2022-08-30T19:17:16.983Z,23.79
2022-08-30T19:19:22.817Z,23.78
2022-08-30T19:21:28.018Z,23.72
2022-08-30T19:23:34.518Z,23.70
2022-08-30T19:25:41.287Z,23.68
2022-08-30T19:27:47.139Z,23.65
2022-08-30T19:29:55.900Z,23.65
2022-08-30T19:32:01.685Z,23.62
2022-08-30T19:34:06.749Z,23.61
2022-08-30T19:36:11.957Z,23.61
2022-08-30T19:38:17.146Z,23.58
2022-08-30T19:40:23.578Z,23.56
2022-08-30T19:42:30.719Z,23.55
2022-08-30T19:44:35.840Z,23.52
2022-08-30T19:46:40.778Z,23.50
2022-08-30T19:48:45.930Z,23.50
2022-08-30T19:50:52.529Z,23.51
2022-08-30T19:52:59.459Z,23.51
2022-08-30T19:55:08.215Z,23.49
2022-08-30T19:57:13.374Z,23.48
2022-08-30T19:59:19.611Z,23.47
2022-08-30T20:01:32.382Z,23.44
2022-08-30T20:03:40.396Z,23.41
2022-08-30T20:05:45.510Z,23.37
2022-08-30T20:07:51.048Z,23.35
2022-08-30T20:09:56.936Z,23.33
2022-08-30T20:12:02.317Z,23.31
2022-08-30T20:14:07.235Z,23.27
2022-08-30T20:16:13.589Z,23.23
2022-08-30T20:18:18.542Z,23.20
2022-08-30T20:20:24.292Z,23.17
2022-08-30T20:22:30.906Z,23.14
2022-08-30T20:26:46.180Z,23.07
2022-08-30T20:28:51.086Z,23.03
2022-08-30T20:30:56.653Z,23.00
2022-08-30T20:33:06.386Z,22.96
2022-08-30T20:35:13.757Z,22.93
2022-08-30T20:37:19.030Z,22.90
2022-08-30T20:39:24.783Z,22.89
2022-08-30T20:41:29.864Z,22.88
2022-08-30T20:43:34.793Z,22.86
2022-08-30T20:45:40.162Z,22.84
2022-08-30T20:47:45.641Z,22.83
2022-08-30T20:49:50.556Z,22.83
2022-08-30T20:51:55.524Z,22.83
2022-08-30T20:54:00.761Z,22.83
2022-08-30T20:56:10.880Z,22.81
2022-08-30T20:58:16.048Z,22.81
2022-08-30T21:00:21.750Z,22.78
2022-08-30T21:02:27.176Z,22.76
2022-08-30T21:04:32.306Z,22.73
2022-08-30T21:06:37.465Z,22.70
2022-08-30T21:08:43.290Z,22.67
2022-08-30T21:10:48.555Z,22.64
2022-08-30T21:12:54.716Z,22.62
2022-08-30T21:15:07.337Z,22.63
2022-08-30T21:17:20.789Z,22.63
2022-08-30T21:19:27.317Z,22.61
2022-08-30T21:21:32.523Z,22.59
2022-08-30T21:23:37.707Z,22.60
2022-08-30T21:25:43.842Z,22.60
2022-08-30T21:27:48.762Z,22.56
2022-08-30T21:29:57.726Z,22.49
2022-08-30T21:32:03.144Z,22.43
2022-08-30T21:34:13.219Z,22.34
2022-08-30T21:36:24.066Z,22.25
2022-08-30T21:38:29.208Z,22.17
2022-08-30T21:40:34.522Z,22.11
2022-08-30T21:42:39.932Z,22.06
2022-08-30T21:44:44.896Z,21.99
2022-08-30T21:46:51.394Z,21.93
2022-08-30T21:48:57.025Z,21.87
2022-08-30T21:51:04.673Z,21.82
2022-08-30T21:53:15.159Z,21.79
2022-08-30T21:55:23.401Z,21.72
2022-08-30T21:57:28.704Z,21.64
2022-08-30T21:59:34.629Z,21.55
2022-08-30T22:01:40.708Z,21.48
2022-08-30T22:03:46.411Z,21.43
2022-08-30T22:05:54.427Z,21.39
2022-08-30T22:07:59.718Z,21.37
2022-08-30T22:10:11.896Z,21.34
2022-08-30T22:12:16.967Z,21.31
2022-08-30T22:14:24.269Z,21.28
2022-08-30T22:16:32.140Z,21.27
2022-08-30T22:18:38.249Z,21.23
2022-08-30T22:20:43.658Z,21.20
2022-08-30T22:22:50.316Z,21.17
2022-08-30T22:24:58.129Z,21.13
2022-08-30T22:27:04.333Z,21.11
2022-08-30T22:29:10.558Z,21.09
2022-08-30T22:31:21.806Z,21.07
2022-08-30T22:33:26.785Z,21.04
2022-08-30T22:35:31.969Z,21.01
2022-08-30T22:37:38.293Z,20.94
2022-08-30T22:39:43.391Z,20.90
2022-08-30T22:41:50.220Z,20.85
2022-08-30T22:43:55.333Z,20.80
2022-08-30T22:46:00.666Z,20.77
2022-08-30T22:48:06.174Z,20.72
2022-08-30T22:50:13.354Z,20.69
2022-08-30T22:52:18.517Z,20.66
2022-08-30T22:54:29.416Z,20.64
2022-08-30T22:56:36.751Z,20.64
2022-08-30T22:58:41.777Z,20.62
2022-08-30T23:00:54.742Z,20.58
2022-08-30T23:03:00.863Z,20.56
2022-08-30T23:05:06.605Z,20.51
2022-08-30T23:07:11.567Z,20.47
2022-08-30T23:09:16.545Z,20.42
2022-08-30T23:11:22.142Z,20.38
2022-08-30T23:13:27.171Z,20.34
2022-08-30T23:15:32.194Z,20.29
2022-08-30T23:17:40.675Z,20.27
2022-08-30T23:19:45.779Z,20.25
2022-08-30T23:21:50.754Z,20.22
2022-08-30T23:23:57.535Z,20.22
2022-08-30T23:26:03.232Z,20.21
2022-08-30T23:28:09.835Z,20.23
2022-08-30T23:30:14.955Z,20.23
2022-08-30T23:32:21.008Z,20.20
2022-08-30T23:34:29.187Z,20.20
2022-08-30T23:36:33.956Z,20.19
2022-08-30T23:38:38.946Z,20.19
2022-08-30T23:40:44.191Z,20.19
2022-08-30T23:42:49.182Z,20.21
2022-08-30T23:44:54.370Z,20.23
2022-08-30T23:46:59.729Z,20.24
2022-08-30T23:49:05.603Z,20.25
2022-08-30T23:51:10.565Z,20.26
2022-08-30T23:53:19.463Z,20.28
2022-08-30T23:55:30.914Z,20.30
2022-08-30T23:57:37.089Z,20.32
2022-08-30T23:59:42.053Z,20.32
